sensor_id;sensor_type;location;lat;lon;timestamp;P1;durP1;ratioP1;P2;durP2;ratioP2
29030;SDS011;16122;50.236;11.734;2022-12-11T00:01:58;4.20;;;3.67;;
29030;SDS011;16122;50.236;11.734;2022-12-11T00:04:24;4.97;;;4.33;;
29030;SDS011;16122;50.236;11.734;2022-12-11T00:06:50;6.17;;;4.63;;
29030;SDS011;16122;50.236;11.734;2022-12-11T00:09:17;3.60;;;3.27;;
29030;SDS011;16122;50.236;11.734;2022-12-11T00:11:44;4.20;;;3.80;;
29030;SDS011;16122;50.236;11.734;2022-12-11T00:14:10;4.47;;;3.60;;
29030;SDS011;16122;50.236;11.734;2022-12-11T00:16:37;4.23;;;3.83;;
29030;SDS011;16122;50.236;11.734;2022-12-11T00:19:03;4.00;;;3.43;;
29030;SDS011;16122;50.236;11.734;2022-12-11T00:21:29;4.23;;;3.60;;
29030;SDS011;16122;50.236;11.734;2022-12-11T00:23:55;5.23;;;3.90;;
29030;SDS011;16122;50.236;11.734;2022-12-11T00:26:20;5.87;;;4.40;;
29030;SDS011;16122;50.236;11.734;2022-12-11T00:28:50;5.27;;;4.20;;
29030;SDS011;16122;50.236;11.734;2022-12-11T00:31:18;4.50;;;4.10;;
29030;SDS011;16122;50.236;11.734;2022-12-11T00:33:44;5.67;;;4.20;;
29030;SDS011;16122;50.236;11.734;2022-12-11T00:36:14;5.87;;;4.33;;
29030;SDS011;16122;50.236;11.734;2022-12-11T00:38:42;5.33;;;4.20;;
29030;SDS011;16122;50.236;11.734;2022-12-11T00:41:08;5.70;;;4.63;;
29030;SDS011;16122;50.236;11.734;2022-12-11T00:43:35;4.60;;;4.17;;
29030;SDS011;16122;50.236;11.734;2022-12-11T00:46:01;4.57;;;3.77;;
29030;SDS011;16122;50.236;11.734;2022-12-11T00:48:27;5.20;;;4.13;;
29030;SDS011;16122;50.236;11.734;2022-12-11T00:50:53;6.17;;;4.67;;
29030;SDS011;16122;50.236;11.734;2022-12-11T00:53:19;4.70;;;3.80;;
29030;SDS011;16122;50.236;11.734;2022-12-11T00:55:45;5.33;;;4.63;;
29030;SDS011;16122;50.236;11.734;2022-12-11T00:58:11;5.20;;;4.13;;
29030;SDS011;16122;50.236;11.734;2022-12-11T01:00:38;5.90;;;4.73;;
29030;SDS011;16122;50.236;11.734;2022-12-11T01:03:04;4.50;;;4.10;;
29030;SDS011;16122;50.236;11.734;2022-12-11T01:05:30;5.47;;;4.43;;
29030;SDS011;16122;50.236;11.734;2022-12-11T01:07:57;4.40;;;4.00;;
29030;SDS011;16122;50.236;11.734;2022-12-11T01:10:23;4.50;;;4.10;;
29030;SDS011;16122;50.236;11.734;2022-12-11T01:12:53;4.30;;;3.80;;
29030;SDS011;16122;50.236;11.734;2022-12-11T01:15:25;5.80;;;4.17;;
29030;SDS011;16122;50.236;11.734;2022-12-11T01:17:54;4.60;;;4.00;;
29030;SDS011;16122;50.236;11.734;2022-12-11T01:20:21;5.30;;;4.80;;
29030;SDS011;16122;50.236;11.734;2022-12-11T01:22:52;4.47;;;4.07;;
29030;SDS011;16122;50.236;11.734;2022-12-11T01:25:22;4.90;;;3.90;;
29030;SDS011;16122;50.236;11.734;2022-12-11T01:27:50;4.00;;;3.70;;
29030;SDS011;16122;50.236;11.734;2022-12-11T01:30:17;4.90;;;4.20;;
29030;SDS011;16122;50.236;11.734;2022-12-11T01:32:45;5.27;;;4.50;;
29030;SDS011;16122;50.236;11.734;2022-12-11T01:35:11;4.33;;;3.93;;
29030;SDS011;16122;50.236;11.734;2022-12-11T01:37:38;4.77;;;3.50;;
29030;SDS011;16122;50.236;11.734;2022-12-11T01:40:04;4.50;;;3.63;;
29030;SDS011;16122;50.236;11.734;2022-12-11T01:42:31;4.30;;;3.50;;
29030;SDS011;16122;50.236;11.734;2022-12-11T01:48:02;3.97;;;3.60;;
29030;SDS011;16122;50.236;11.734;2022-12-11T01:50:29;3.50;;;3.20;;
29030;SDS011;16122;50.236;11.734;2022-12-11T01:52:58;4.40;;;3.80;;
29030;SDS011;16122;50.236;11.734;2022-12-11T01:55:24;4.33;;;3.57;;
29030;SDS011;16122;50.236;11.734;2022-12-11T01:57:50;5.20;;;3.50;;
29030;SDS011;16122;50.236;11.734;2022-12-11T02:00:17;3.97;;;3.60;;
29030;SDS011;16122;50.236;11.734;2022-12-11T02:02:43;4.50;;;3.87;;
29030;SDS011;16122;50.236;11.734;2022-12-11T02:05:09;3.40;;;3.07;;
29030;SDS011;16122;50.236;11.734;2022-12-11T02:07:43;3.57;;;3.20;;
29030;SDS011;16122;50.236;11.734;2022-12-11T02:10:15;4.20;;;3.60;;
29030;SDS011;16122;50.236;11.734;2022-12-11T02:29:21;3.70;;;3.40;;
29030;SDS011;16122;50.236;11.734;2022-12-11T02:31:59;3.57;;;3.27;;
29030;SDS011;16122;50.236;11.734;2022-12-11T02:34:48;4.53;;;3.50;;
29030;SDS011;16122;50.236;11.734;2022-12-11T02:37:22;4.40;;;3.57;;
29030;SDS011;16122;50.236;11.734;2022-12-11T02:39:51;3.77;;;3.37;;
29030;SDS011;16122;50.236;11.734;2022-12-11T02:42:19;3.70;;;3.30;;
29030;SDS011;16122;50.236;11.734;2022-12-11T02:44:47;3.43;;;3.13;;
29030;SDS011;16122;50.236;11.734;2022-12-11T02:47:15;3.67;;;3.20;;
29030;SDS011;16122;50.236;11.734;2022-12-11T02:49:44;5.13;;;4.10;;
29030;SDS011;16122;50.236;11.734;2022-12-11T02:52:13;3.30;;;3.00;;
29030;SDS011;16122;50.236;11.734;2022-12-11T02:54:43;3.83;;;3.43;;
29030;SDS011;16122;50.236;11.734;2022-12-11T02:57:12;3.90;;;3.20;;
29030;SDS011;16122;50.236;11.734;2022-12-11T02:59:41;3.50;;;3.20;;
29030;SDS011;16122;50.236;11.734;2022-12-11T03:02:10;3.23;;;2.97;;
29030;SDS011;16122;50.236;11.734;2022-12-11T03:04:38;3.20;;;2.90;;
29030;SDS011;16122;50.236;11.734;2022-12-11T03:07:09;3.37;;;3.07;;
29030;SDS011;16122;50.236;11.734;2022-12-11T03:09:43;3.43;;;3.10;;
29030;SDS011;16122;50.236;11.734;2022-12-11T03:12:11;3.77;;;3.30;;
29030;SDS011;16122;50.236;11.734;2022-12-11T03:14:41;3.10;;;2.80;;
29030;SDS011;16122;50.236;11.734;2022-12-11T03:25:54;3.53;;;3.23;;
29030;SDS011;16122;50.236;11.734;2022-12-11T03:28:31;3.60;;;3.30;;
29030;SDS011;16122;50.236;11.734;2022-12-11T03:31:02;3.70;;;3.40;;
29030;SDS011;16122;50.236;11.734;2022-12-11T03:33:34;3.10;;;2.80;;
29030;SDS011;16122;50.236;11.734;2022-12-11T03:36:10;3.67;;;3.23;;
29030;SDS011;16122;50.236;11.734;2022-12-11T03:39:02;3.60;;;3.30;;
29030;SDS011;16122;50.236;11.734;2022-12-11T03:41:56;3.00;;;2.80;;
29030;SDS011;16122;50.236;11.734;2022-12-11T03:44:25;3.43;;;3.13;;
29030;SDS011;16122;50.236;11.734;2022-12-11T03:46:53;3.53;;;3.23;;
29030;SDS011;16122;50.236;11.734;2022-12-11T03:49:23;3.33;;;3.03;;
29030;SDS011;16122;50.236;11.734;2022-12-11T03:51:53;2.97;;;2.77;;
29030;SDS011;16122;50.236;11.734;2022-12-11T03:54:22;3.30;;;3.00;;
29030;SDS011;16122;50.236;11.734;2022-12-11T03:56:50;3.57;;;3.27;;
29030;SDS011;16122;50.236;11.734;2022-12-11T03:59:20;3.27;;;2.80;;
29030;SDS011;16122;50.236;11.734;2022-12-11T04:01:45;3.47;;;3.10;;
29030;SDS011;16122;50.236;11.734;2022-12-11T04:04:11;3.60;;;2.97;;
29030;SDS011;16122;50.236;11.734;2022-12-11T04:06:37;3.20;;;2.90;;
29030;SDS011;16122;50.236;11.734;2022-12-11T04:09:03;3.40;;;3.10;;
29030;SDS011;16122;50.236;11.734;2022-12-11T04:11:29;3.60;;;3.30;;
29030;SDS011;16122;50.236;11.734;2022-12-11T04:14:11;3.23;;;2.93;;
29030;SDS011;16122;50.236;11.734;2022-12-11T04:16:57;3.40;;;3.10;;
29030;SDS011;16122;50.236;11.734;2022-12-11T04:19:24;3.87;;;3.47;;
29030;SDS011;16122;50.236;11.734;2022-12-11T04:22:10;3.70;;;3.40;;
29030;SDS011;16122;50.236;11.734;2022-12-11T04:24:55;3.50;;;3.20;;
29030;SDS011;16122;50.236;11.734;2022-12-11T04:27:21;3.20;;;2.90;;
29030;SDS011;16122;50.236;11.734;2022-12-11T04:30:07;2.90;;;2.70;;
29030;SDS011;16122;50.236;11.734;2022-12-11T04:32:35;4.33;;;3.30;;
29030;SDS011;16122;50.236;11.734;2022-12-11T04:35:01;3.10;;;2.83;;
29030;SDS011;16122;50.236;11.734;2022-12-11T04:37:28;4.07;;;3.43;;
29030;SDS011;16122;50.236;11.734;2022-12-11T04:39:53;4.40;;;3.10;;
29030;SDS011;16122;50.236;11.734;2022-12-11T04:42:19;3.87;;;3.43;;
29030;SDS011;16122;50.236;11.734;2022-12-11T04:44:45;3.23;;;2.93;;
29030;SDS011;16122;50.236;11.734;2022-12-11T04:47:11;3.47;;;3.17;;
29030;SDS011;16122;50.236;11.734;2022-12-11T04:49:37;3.83;;;3.30;;
29030;SDS011;16122;50.236;11.734;2022-12-11T04:52:02;3.13;;;2.90;;
29030;SDS011;16122;50.236;11.734;2022-12-11T04:54:29;3.00;;;2.80;;
29030;SDS011;16122;50.236;11.734;2022-12-11T04:56:55;3.53;;;3.23;;
29030;SDS011;16122;50.236;11.734;2022-12-11T04:59:21;3.40;;;3.10;;
29030;SDS011;16122;50.236;11.734;2022-12-11T05:01:47;3.87;;;3.57;;
29030;SDS011;16122;50.236;11.734;2022-12-11T05:04:13;3.63;;;3.33;;
29030;SDS011;16122;50.236;11.734;2022-12-11T05:06:39;3.00;;;2.80;;
29030;SDS011;16122;50.236;11.734;2022-12-11T05:09:05;3.70;;;3.40;;
29030;SDS011;16122;50.236;11.734;2022-12-11T05:11:31;3.37;;;3.07;;
29030;SDS011;16122;50.236;11.734;2022-12-11T05:13:57;3.77;;;3.43;;
29030;SDS011;16122;50.236;11.734;2022-12-11T05:16:23;3.77;;;3.40;;
29030;SDS011;16122;50.236;11.734;2022-12-11T05:18:49;3.23;;;3.03;;
29030;SDS011;16122;50.236;11.734;2022-12-11T05:21:14;4.07;;;3.60;;
29030;SDS011;16122;50.236;11.734;2022-12-11T05:23:41;4.30;;;3.90;;
29030;SDS011;16122;50.236;11.734;2022-12-11T05:26:09;3.50;;;3.20;;
29030;SDS011;16122;50.236;11.734;2022-12-11T05:28:37;4.20;;;3.80;;
29030;SDS011;16122;50.236;11.734;2022-12-11T05:31:04;3.77;;;3.43;;
29030;SDS011;16122;50.236;11.734;2022-12-11T05:33:32;3.13;;;2.83;;
29030;SDS011;16122;50.236;11.734;2022-12-11T05:35:58;3.40;;;3.10;;
29030;SDS011;16122;50.236;11.734;2022-12-11T05:38:24;3.83;;;3.40;;
29030;SDS011;16122;50.236;11.734;2022-12-11T05:41:09;4.03;;;3.60;;
29030;SDS011;16122;50.236;11.734;2022-12-11T05:43:37;3.70;;;3.40;;
29030;SDS011;16122;50.236;11.734;2022-12-11T05:46:04;3.80;;;3.50;;
29030;SDS011;16122;50.236;11.734;2022-12-11T05:48:32;3.47;;;3.20;;
29030;SDS011;16122;50.236;11.734;2022-12-11T05:50:58;2.97;;;2.77;;
29030;SDS011;16122;50.236;11.734;2022-12-11T05:53:26;4.00;;;3.60;;
29030;SDS011;16122;50.236;11.734;2022-12-11T05:55:52;4.00;;;3.57;;
29030;SDS011;16122;50.236;11.734;2022-12-11T05:58:19;4.00;;;3.40;;
29030;SDS011;16122;50.236;11.734;2022-12-11T06:00:46;4.53;;;3.50;;
29030;SDS011;16122;50.236;11.734;2022-12-11T06:03:12;3.43;;;3.13;;
29030;SDS011;16122;50.236;11.734;2022-12-11T06:05:38;3.87;;;3.53;;
29030;SDS011;16122;50.236;11.734;2022-12-11T06:08:05;3.60;;;3.30;;
29030;SDS011;16122;50.236;11.734;2022-12-11T06:10:32;3.77;;;3.47;;
29030;SDS011;16122;50.236;11.734;2022-12-11T06:12:58;5.80;;;3.33;;
29030;SDS011;16122;50.236;11.734;2022-12-11T06:15:24;4.13;;;3.73;;
29030;SDS011;16122;50.236;11.734;2022-12-11T06:17:51;4.20;;;3.80;;
29030;SDS011;16122;50.236;11.734;2022-12-11T06:20:17;3.53;;;3.20;;
29030;SDS011;16122;50.236;11.734;2022-12-11T06:22:43;4.10;;;3.73;;
29030;SDS011;16122;50.236;11.734;2022-12-11T06:25:08;4.73;;;4.20;;
29030;SDS011;16122;50.236;11.734;2022-12-11T06:27:34;4.30;;;3.90;;
29030;SDS011;16122;50.236;11.734;2022-12-11T06:30:00;3.87;;;3.50;;
29030;SDS011;16122;50.236;11.734;2022-12-11T06:32:26;4.43;;;3.70;;
29030;SDS011;16122;50.236;11.734;2022-12-11T06:34:52;4.30;;;3.90;;
29030;SDS011;16122;50.236;11.734;2022-12-11T06:37:18;4.20;;;3.80;;
29030;SDS011;16122;50.236;11.734;2022-12-11T06:39:44;5.10;;;4.20;;
29030;SDS011;16122;50.236;11.734;2022-12-11T06:42:10;4.07;;;3.67;;
29030;SDS011;16122;50.236;11.734;2022-12-11T06:44:36;4.47;;;4.07;;
29030;SDS011;16122;50.236;11.734;2022-12-11T06:47:02;3.47;;;3.17;;
29030;SDS011;16122;50.236;11.734;2022-12-11T06:49:28;11.40;;;4.50;;
29030;SDS011;16122;50.236;11.734;2022-12-11T06:51:54;6.20;;;3.80;;
29030;SDS011;16122;50.236;11.734;2022-12-11T06:54:24;5.40;;;4.00;;
29030;SDS011;16122;50.236;11.734;2022-12-11T06:56:51;6.00;;;4.00;;
29030;SDS011;16122;50.236;11.734;2022-12-11T06:59:17;4.13;;;3.83;;
29030;SDS011;16122;50.236;11.734;2022-12-11T07:01:43;4.77;;;3.87;;
29030;SDS011;16122;50.236;11.734;2022-12-11T07:04:09;5.20;;;4.13;;
29030;SDS011;16122;50.236;11.734;2022-12-11T07:06:35;4.07;;;3.67;;
29030;SDS011;16122;50.236;11.734;2022-12-11T07:09:04;4.50;;;3.70;;
29030;SDS011;16122;50.236;11.734;2022-12-11T07:11:30;4.87;;;3.67;;
29030;SDS011;16122;50.236;11.734;2022-12-11T07:13:59;5.10;;;4.40;;
29030;SDS011;16122;50.236;11.734;2022-12-11T07:16:25;3.80;;;3.43;;
29030;SDS011;16122;50.236;11.734;2022-12-11T07:18:51;6.77;;;3.80;;
29030;SDS011;16122;50.236;11.734;2022-12-11T07:21:17;6.63;;;3.60;;
29030;SDS011;16122;50.236;11.734;2022-12-11T07:23:44;4.40;;;3.33;;
29030;SDS011;16122;50.236;11.734;2022-12-11T07:26:12;5.23;;;4.47;;
29030;SDS011;16122;50.236;11.734;2022-12-11T07:28:40;4.10;;;3.70;;
29030;SDS011;16122;50.236;11.734;2022-12-11T07:31:07;4.53;;;4.00;;
29030;SDS011;16122;50.236;11.734;2022-12-11T07:33:34;3.63;;;3.33;;
29030;SDS011;16122;50.236;11.734;2022-12-11T07:36:01;8.83;;;3.57;;
29030;SDS011;16122;50.236;11.734;2022-12-11T07:38:29;3.63;;;2.90;;
29030;SDS011;16122;50.236;11.734;2022-12-11T07:40:54;3.63;;;3.27;;
29030;SDS011;16122;50.236;11.734;2022-12-11T07:43:20;4.23;;;3.70;;
29030;SDS011;16122;50.236;11.734;2022-12-11T07:45:46;5.63;;;4.17;;
29030;SDS011;16122;50.236;11.734;2022-12-11T07:48:12;7.97;;;3.60;;
29030;SDS011;16122;50.236;11.734;2022-12-11T07:50:37;5.73;;;3.67;;
29030;SDS011;16122;50.236;11.734;2022-12-11T07:53:03;5.50;;;3.30;;
29030;SDS011;16122;50.236;11.734;2022-12-11T07:55:30;3.53;;;3.23;;
29030;SDS011;16122;50.236;11.734;2022-12-11T07:57:56;3.70;;;3.40;;
29030;SDS011;16122;50.236;11.734;2022-12-11T08:00:22;7.40;;;3.70;;
29030;SDS011;16122;50.236;11.734;2022-12-11T08:02:47;4.90;;;3.53;;
29030;SDS011;16122;50.236;11.734;2022-12-11T08:05:13;3.77;;;3.07;;
29030;SDS011;16122;50.236;11.734;2022-12-11T08:07:39;7.90;;;3.07;;
29030;SDS011;16122;50.236;11.734;2022-12-11T08:10:05;3.47;;;3.17;;
29030;SDS011;16122;50.236;11.734;2022-12-11T08:12:31;3.93;;;3.03;;
29030;SDS011;16122;50.236;11.734;2022-12-11T08:14:57;5.57;;;3.97;;
29030;SDS011;16122;50.236;11.734;2022-12-11T08:17:23;4.40;;;3.47;;
29030;SDS011;16122;50.236;11.734;2022-12-11T08:19:49;5.30;;;4.10;;
29030;SDS011;16122;50.236;11.734;2022-12-11T08:22:14;3.57;;;3.27;;
29030;SDS011;16122;50.236;11.734;2022-12-11T08:24:40;5.30;;;3.53;;
29030;SDS011;16122;50.236;11.734;2022-12-11T08:27:06;4.30;;;3.87;;
29030;SDS011;16122;50.236;11.734;2022-12-11T08:29:32;4.70;;;3.80;;
29030;SDS011;16122;50.236;11.734;2022-12-11T08:31:58;4.90;;;3.67;;
29030;SDS011;16122;50.236;11.734;2022-12-11T08:34:24;6.03;;;4.27;;
29030;SDS011;16122;50.236;11.734;2022-12-11T08:36:50;4.07;;;3.40;;
29030;SDS011;16122;50.236;11.734;2022-12-11T08:39:16;4.10;;;3.70;;
29030;SDS011;16122;50.236;11.734;2022-12-11T08:41:41;4.00;;;3.60;;
29030;SDS011;16122;50.236;11.734;2022-12-11T08:44:09;4.40;;;3.57;;
29030;SDS011;16122;50.236;11.734;2022-12-11T08:46:37;4.23;;;3.83;;
29030;SDS011;16122;50.236;11.734;2022-12-11T08:49:03;4.93;;;3.73;;
29030;SDS011;16122;50.236;11.734;2022-12-11T08:51:30;4.67;;;3.80;;
29030;SDS011;16122;50.236;11.734;2022-12-11T08:53:57;4.13;;;3.70;;
29030;SDS011;16122;50.236;11.734;2022-12-11T08:56:24;7.90;;;3.80;;
29030;SDS011;16122;50.236;11.734;2022-12-11T08:58:51;4.27;;;3.50;;
29030;SDS011;16122;50.236;11.734;2022-12-11T09:01:21;3.97;;;3.60;;
29030;SDS011;16122;50.236;11.734;2022-12-11T09:03:51;3.50;;;3.07;;
29030;SDS011;16122;50.236;11.734;2022-12-11T09:06:18;3.47;;;2.83;;
29030;SDS011;16122;50.236;11.734;2022-12-11T09:08:46;4.17;;;3.60;;
29030;SDS011;16122;50.236;11.734;2022-12-11T09:11:14;4.60;;;3.00;;
29030;SDS011;16122;50.236;11.734;2022-12-11T09:13:43;3.70;;;3.17;;
29030;SDS011;16122;50.236;11.734;2022-12-11T09:16:11;3.90;;;3.50;;
29030;SDS011;16122;50.236;11.734;2022-12-11T09:18:38;4.20;;;3.80;;
29030;SDS011;16122;50.236;11.734;2022-12-11T09:21:06;4.10;;;3.60;;
29030;SDS011;16122;50.236;11.734;2022-12-11T09:23:34;4.33;;;3.57;;
29030;SDS011;16122;50.236;11.734;2022-12-11T09:26:03;3.43;;;3.10;;
29030;SDS011;16122;50.236;11.734;2022-12-11T09:28:30;4.10;;;3.70;;
29030;SDS011;16122;50.236;11.734;2022-12-11T09:30:57;5.27;;;3.27;;
29030;SDS011;16122;50.236;11.734;2022-12-11T09:33:23;11.37;;;4.17;;
29030;SDS011;16122;50.236;11.734;2022-12-11T09:36:01;4.03;;;3.20;;
29030;SDS011;16122;50.236;11.734;2022-12-11T09:38:28;4.70;;;3.20;;
29030;SDS011;16122;50.236;11.734;2022-12-11T09:40:54;5.33;;;3.83;;
29030;SDS011;16122;50.236;11.734;2022-12-11T09:46:06;5.50;;;3.90;;
29030;SDS011;16122;50.236;11.734;2022-12-11T09:48:35;5.63;;;4.00;;
29030;SDS011;16122;50.236;11.734;2022-12-11T09:51:49;6.10;;;3.80;;
29030;SDS011;16122;50.236;11.734;2022-12-11T09:53:53;5.00;;;3.40;;
29030;SDS011;16122;50.236;11.734;2022-12-11T09:56:23;4.37;;;3.97;;
29030;SDS011;16122;50.236;11.734;2022-12-11T09:59:08;4.00;;;3.60;;
29030;SDS011;16122;50.236;11.734;2022-12-11T10:02:09;4.20;;;3.60;;
29030;SDS011;16122;50.236;11.734;2022-12-11T10:07:47;5.77;;;4.47;;
29030;SDS011;16122;50.236;11.734;2022-12-11T10:10:28;4.80;;;3.90;;
29030;SDS011;16122;50.236;11.734;2022-12-11T10:18:50;3.90;;;3.50;;
29030;SDS011;16122;50.236;11.734;2022-12-11T10:21:17;3.90;;;3.60;;
29030;SDS011;16122;50.236;11.734;2022-12-11T10:23:51;5.87;;;3.80;;
29030;SDS011;16122;50.236;11.734;2022-12-11T10:26:22;7.17;;;3.90;;
29030;SDS011;16122;50.236;11.734;2022-12-11T10:28:48;4.63;;;3.80;;
29030;SDS011;16122;50.236;11.734;2022-12-11T10:31:15;7.20;;;4.27;;
29030;SDS011;16122;50.236;11.734;2022-12-11T10:33:48;4.23;;;3.87;;
29030;SDS011;16122;50.236;11.734;2022-12-11T10:36:26;4.00;;;3.40;;
29030;SDS011;16122;50.236;11.734;2022-12-11T10:38:53;4.20;;;3.53;;
29030;SDS011;16122;50.236;11.734;2022-12-11T10:41:21;4.20;;;3.40;;
29030;SDS011;16122;50.236;11.734;2022-12-11T10:43:59;3.43;;;3.13;;
29030;SDS011;16122;50.236;11.734;2022-12-11T10:46:27;3.60;;;3.30;;
29030;SDS011;16122;50.236;11.734;2022-12-11T10:48:54;4.83;;;3.67;;
29030;SDS011;16122;50.236;11.734;2022-12-11T10:53:57;5.37;;;3.70;;
29030;SDS011;16122;50.236;11.734;2022-12-11T10:56:32;4.97;;;3.50;;
29030;SDS011;16122;50.236;11.734;2022-12-11T10:58:59;5.00;;;3.77;;
29030;SDS011;16122;50.236;11.734;2022-12-11T11:01:26;4.43;;;3.60;;
29030;SDS011;16122;50.236;11.734;2022-12-11T11:06:31;5.30;;;3.80;;
29030;SDS011;16122;50.236;11.734;2022-12-11T11:08:58;4.10;;;3.67;;
29030;SDS011;16122;50.236;11.734;2022-12-11T11:11:32;5.70;;;3.87;;
29030;SDS011;16122;50.236;11.734;2022-12-11T11:14:06;4.33;;;3.93;;
29030;SDS011;16122;50.236;11.734;2022-12-11T11:16:38;4.30;;;3.13;;
29030;SDS011;16122;50.236;11.734;2022-12-11T11:19:13;5.63;;;3.80;;
29030;SDS011;16122;50.236;11.734;2022-12-11T11:21:50;4.30;;;3.33;;
29030;SDS011;16122;50.236;11.734;2022-12-11T11:24:28;4.00;;;3.57;;
29030;SDS011;16122;50.236;11.734;2022-12-11T11:27:10;4.03;;;3.63;;
29030;SDS011;16122;50.236;11.734;2022-12-11T11:29:53;3.57;;;3.27;;
29030;SDS011;16122;50.236;11.734;2022-12-11T11:32:23;5.40;;;3.33;;
29030;SDS011;16122;50.236;11.734;2022-12-11T11:34:50;3.57;;;3.20;;
29030;SDS011;16122;50.236;11.734;2022-12-11T11:37:32;3.40;;;2.90;;
29030;SDS011;16122;50.236;11.734;2022-12-11T11:40:04;3.60;;;3.30;;
29030;SDS011;16122;50.236;11.734;2022-12-11T11:45:24;4.50;;;3.77;;
29030;SDS011;16122;50.236;11.734;2022-12-11T11:47:57;4.40;;;3.67;;
29030;SDS011;16122;50.236;11.734;2022-12-11T11:50:32;4.00;;;3.60;;
29030;SDS011;16122;50.236;11.734;2022-12-11T11:53:11;3.80;;;3.23;;
29030;SDS011;16122;50.236;11.734;2022-12-11T11:59:15;5.00;;;3.70;;
29030;SDS011;16122;50.236;11.734;2022-12-11T12:01:29;4.57;;;3.13;;
29030;SDS011;16122;50.236;11.734;2022-12-11T12:03:55;3.50;;;3.20;;
29030;SDS011;16122;50.236;11.734;2022-12-11T12:18:20;3.50;;;3.20;;
29030;SDS011;16122;50.236;11.734;2022-12-11T12:20:57;4.83;;;3.43;;
29030;SDS011;16122;50.236;11.734;2022-12-11T12:26:37;6.43;;;4.90;;
29030;SDS011;16122;50.236;11.734;2022-12-11T12:29:10;6.63;;;5.13;;
29030;SDS011;16122;50.236;11.734;2022-12-11T12:31:55;4.50;;;4.00;;
29030;SDS011;16122;50.236;11.734;2022-12-11T12:34:39;5.43;;;3.73;;
29030;SDS011;16122;50.236;11.734;2022-12-11T12:39:55;5.10;;;3.93;;
29030;SDS011;16122;50.236;11.734;2022-12-11T12:48:15;6.03;;;4.40;;
29030;SDS011;16122;50.236;11.734;2022-12-11T12:50:42;6.20;;;4.00;;
29030;SDS011;16122;50.236;11.734;2022-12-11T12:53:13;3.60;;;3.30;;
29030;SDS011;16122;50.236;11.734;2022-12-11T12:55:44;4.20;;;3.77;;
29030;SDS011;16122;50.236;11.734;2022-12-11T12:58:23;4.00;;;3.57;;
29030;SDS011;16122;50.236;11.734;2022-12-11T13:00:49;4.40;;;3.50;;
29030;SDS011;16122;50.236;11.734;2022-12-11T13:03:22;4.50;;;3.73;;
29030;SDS011;16122;50.236;11.734;2022-12-11T13:06:05;5.73;;;3.87;;
29030;SDS011;16122;50.236;11.734;2022-12-11T13:08:52;4.20;;;3.80;;
29030;SDS011;16122;50.236;11.734;2022-12-11T13:11:19;4.87;;;3.77;;
29030;SDS011;16122;50.236;11.734;2022-12-11T13:14:05;5.63;;;3.70;;
29030;SDS011;16122;50.236;11.734;2022-12-11T13:16:47;3.70;;;3.30;;
29030;SDS011;16122;50.236;11.734;2022-12-11T13:21:58;3.23;;;2.93;;
29030;SDS011;16122;50.236;11.734;2022-12-11T13:27:24;4.70;;;3.90;;
29030;SDS011;16122;50.236;11.734;2022-12-11T13:30:05;3.70;;;3.30;;
29030;SDS011;16122;50.236;11.734;2022-12-11T13:35:27;3.13;;;2.80;;
29030;SDS011;16122;50.236;11.734;2022-12-11T13:37:54;3.20;;;2.93;;
29030;SDS011;16122;50.236;11.734;2022-12-11T13:40:24;3.40;;;3.10;;
29030;SDS011;16122;50.236;11.734;2022-12-11T13:42:56;3.70;;;3.27;;
29030;SDS011;16122;50.236;11.734;2022-12-11T13:45:27;3.37;;;3.07;;
29030;SDS011;16122;50.236;11.734;2022-12-11T13:47:57;3.80;;;2.90;;
29030;SDS011;16122;50.236;11.734;2022-12-11T13:50:25;4.30;;;3.50;;
29030;SDS011;16122;50.236;11.734;2022-12-11T13:52:57;3.50;;;3.20;;
29030;SDS011;16122;50.236;11.734;2022-12-11T13:55:25;3.17;;;2.87;;
29030;SDS011;16122;50.236;11.734;2022-12-11T13:58:00;3.20;;;2.90;;
29030;SDS011;16122;50.236;11.734;2022-12-11T14:00:29;3.43;;;3.00;;
29030;SDS011;16122;50.236;11.734;2022-12-11T14:02:57;3.10;;;2.80;;
29030;SDS011;16122;50.236;11.734;2022-12-11T14:05:27;3.13;;;2.83;;
29030;SDS011;16122;50.236;11.734;2022-12-11T14:07:54;2.93;;;2.70;;
29030;SDS011;16122;50.236;11.734;2022-12-11T14:10:24;2.97;;;2.70;;
29030;SDS011;16122;50.236;11.734;2022-12-11T14:15:18;3.70;;;3.40;;
29030;SDS011;16122;50.236;11.734;2022-12-11T14:17:45;4.13;;;3.17;;
29030;SDS011;16122;50.236;11.734;2022-12-11T14:22:47;3.60;;;2.97;;
29030;SDS011;16122;50.236;11.734;2022-12-11T14:25:23;3.00;;;2.53;;
29030;SDS011;16122;50.236;11.734;2022-12-11T14:27:52;3.10;;;2.60;;
29030;SDS011;16122;50.236;11.734;2022-12-11T14:30:27;2.97;;;2.67;;
29030;SDS011;16122;50.236;11.734;2022-12-11T14:32:57;5.27;;;3.07;;
29030;SDS011;16122;50.236;11.734;2022-12-11T14:35:33;3.03;;;2.37;;
29030;SDS011;16122;50.236;11.734;2022-12-11T14:38:03;2.90;;;2.70;;
29030;SDS011;16122;50.236;11.734;2022-12-11T14:40:38;2.87;;;2.60;;
29030;SDS011;16122;50.236;11.734;2022-12-11T14:43:19;4.20;;;3.17;;
29030;SDS011;16122;50.236;11.734;2022-12-11T14:45:59;3.73;;;3.27;;
29030;SDS011;16122;50.236;11.734;2022-12-11T14:48:33;2.93;;;2.57;;
29030;SDS011;16122;50.236;11.734;2022-12-11T14:51:04;3.27;;;2.97;;
29030;SDS011;16122;50.236;11.734;2022-12-11T14:53:36;4.20;;;2.80;;
29030;SDS011;16122;50.236;11.734;2022-12-11T14:56:06;3.30;;;3.00;;
29030;SDS011;16122;50.236;11.734;2022-12-11T14:58:37;3.80;;;3.47;;
29030;SDS011;16122;50.236;11.734;2022-12-11T15:01:20;3.70;;;3.30;;
29030;SDS011;16122;50.236;11.734;2022-12-11T15:03:48;3.60;;;3.30;;
29030;SDS011;16122;50.236;11.734;2022-12-11T15:06:24;3.17;;;2.90;;
29030;SDS011;16122;50.236;11.734;2022-12-11T15:08:54;2.97;;;2.67;;
29030;SDS011;16122;50.236;11.734;2022-12-11T15:11:20;3.53;;;3.23;;
29030;SDS011;16122;50.236;11.734;2022-12-11T15:16:23;3.10;;;2.80;;
29030;SDS011;16122;50.236;11.734;2022-12-11T15:18:51;3.50;;;3.20;;
29030;SDS011;16122;50.236;11.734;2022-12-11T15:21:25;3.70;;;2.90;;
29030;SDS011;16122;50.236;11.734;2022-12-11T15:23:54;2.80;;;2.60;;
29030;SDS011;16122;50.236;11.734;2022-12-11T15:26:32;3.83;;;2.80;;
29030;SDS011;16122;50.236;11.734;2022-12-11T15:34:49;3.23;;;2.83;;
29030;SDS011;16122;50.236;11.734;2022-12-11T15:39:59;3.20;;;2.60;;
29030;SDS011;16122;50.236;11.734;2022-12-11T15:45:04;3.77;;;2.67;;
29030;SDS011;16122;50.236;11.734;2022-12-11T15:47:32;3.37;;;3.07;;
29030;SDS011;16122;50.236;11.734;2022-12-11T15:50:20;2.80;;;2.47;;
29030;SDS011;16122;50.236;11.734;2022-12-11T15:52:48;3.77;;;3.07;;
29030;SDS011;16122;50.236;11.734;2022-12-11T15:55:17;3.40;;;3.10;;
29030;SDS011;16122;50.236;11.734;2022-12-11T15:57:48;2.83;;;2.63;;
29030;SDS011;16122;50.236;11.734;2022-12-11T16:00:16;4.00;;;2.60;;
29030;SDS011;16122;50.236;11.734;2022-12-11T16:02:43;2.80;;;2.60;;
29030;SDS011;16122;50.236;11.734;2022-12-11T16:05:09;4.37;;;2.93;;
29030;SDS011;16122;50.236;11.734;2022-12-11T16:07:35;3.27;;;2.90;;
29030;SDS011;16122;50.236;11.734;2022-12-11T16:10:01;3.93;;;3.20;;
29030;SDS011;16122;50.236;11.734;2022-12-11T16:12:27;3.00;;;2.70;;
29030;SDS011;16122;50.236;11.734;2022-12-11T16:14:53;3.47;;;3.17;;
29030;SDS011;16122;50.236;11.734;2022-12-11T16:17:19;3.73;;;3.33;;
29030;SDS011;16122;50.236;11.734;2022-12-11T16:19:45;3.27;;;3.00;;
29030;SDS011;16122;50.236;11.734;2022-12-11T16:22:11;3.67;;;3.07;;
29030;SDS011;16122;50.236;11.734;2022-12-11T16:24:38;4.63;;;3.70;;
29030;SDS011;16122;50.236;11.734;2022-12-11T16:27:04;4.37;;;3.00;;
29030;SDS011;16122;50.236;11.734;2022-12-11T16:29:34;3.40;;;2.70;;